Time;durP1;ratioP1;P1;durP2;ratioP2;P2;SDS_P1;SDS_P2;PMS_P1;PMS_P2;Temp;Humidity;BMP_temperature;BMP_pressure;BME280_temperature;BME280_humidity;BME280_pressure;Samples;Min_cycle;Max_cycle;Signal;HPM_P1;HPM_P2
2022/05/15 00:02:09;;;;;;;23.52;7.93;;;10.20;99.90;;;;;;5014507;28;20140;-73
2022/05/15 00:04:36;;;;;;;30.08;7.80;;;10.10;99.90;;;;;;5033051;28;20405;-72
2022/05/15 00:07:03;;;;;;;17.35;7.18;;;10.10;99.90;;;;;;5031432;28;20505;-73
2022/05/15 00:09:29;;;;;;;24.42;6.78;;;10.10;99.90;;;;;;5015197;28;20497;-71
2022/05/15 00:11:56;;;;;;;24.08;7.50;;;10.00;99.90;;;;;;5033038;28;20473;-72
2022/05/15 00:14:23;;;;;;;19.52;6.90;;;10.00;99.90;;;;;;5031749;28;20129;-71
2022/05/15 00:16:50;;;;;;;26.38;8.38;;;10.00;99.90;;;;;;5032708;28;20053;-72
2022/05/15 00:19:18;;;;;;;23.35;6.30;;;10.00;99.90;;;;;;5015193;28;20127;-73
2022/05/15 00:21:45;;;;;;;24.08;6.70;;;10.00;99.90;;;;;;5014645;28;20128;-73
2022/05/15 00:24:12;;;;;;;21.83;6.65;;;10.00;99.90;;;;;;5014960;28;20079;-73
2022/05/15 00:26:39;;;;;;;24.77;7.38;;;10.00;99.90;;;;;;5014487;28;20140;-73
2022/05/15 00:29:06;;;;;;;26.33;7.35;;;9.90;99.90;;;;;;5014180;28;20080;-72
2022/05/15 00:31:34;;;;;;;25.65;7.53;;;9.90;99.90;;;;;;5032665;28;20073;-73
2022/05/15 00:34:01;;;;;;;23.17;7.15;;;9.90;99.90;;;;;;5032330;28;20471;-71
2022/05/15 00:36:29;;;;;;;22.00;9.02;;;9.80;99.90;;;;;;5031896;28;20489;-72
2022/05/15 00:38:58;;;;;;;23.95;9.05;;;9.80;99.90;;;;;;5015006;28;20485;-71
2022/05/15 00:41:25;;;;;;;27.00;10.35;;;9.90;99.90;;;;;;5015190;28;20049;-72
2022/05/15 00:43:54;;;;;;;31.17;8.90;;;9.90;99.90;;;;;;5032127;28;20231;-73
2022/05/15 00:46:24;;;;;;;22.33;9.23;;;9.90;99.90;;;;;;5015310;28;20061;-73
2022/05/15 00:48:52;;;;;;;27.30;9.03;;;9.80;99.90;;;;;;5015038;28;20057;-73
2022/05/15 00:51:21;;;;;;;25.55;8.85;;;9.80;99.90;;;;;;5014483;28;20096;-72
2022/05/15 00:53:52;;;;;;;22.52;8.75;;;9.80;99.90;;;;;;5015204;28;20084;-72
2022/05/15 00:56:22;;;;;;;54.67;10.85;;;9.90;99.90;;;;;;5031701;28;20493;-72
2022/05/15 00:58:55;;;;;;;30.25;10.45;;;9.80;99.90;;;;;;5032582;28;20081;-74
2022/05/15 01:01:22;;;;;;;23.02;8.48;;;9.90;99.90;;;;;;5014645;28;20107;-73
2022/05/15 01:03:49;;;;;;;31.00;8.60;;;9.90;99.90;;;;;;5032284;28;20120;-73
2022/05/15 01:06:17;;;;;;;25.45;9.02;;;10.10;99.90;;;;;;5018329;28;20096;-74
2022/05/15 01:08:43;;;;;;;24.35;8.18;;;9.80;99.90;;;;;;5036267;28;20087;-72
2022/05/15 01:11:17;;;;;;;27.35;7.70;;;9.80;99.90;;;;;;5035887;28;20148;-72
2022/05/15 01:13:46;;;;;;;31.60;9.05;;;9.90;99.90;;;;;;5018414;28;20137;-71
2022/05/15 01:16:13;;;;;;;26.27;7.82;;;9.80;99.90;;;;;;5035695;28;20123;-72
2022/05/15 01:18:41;;;;;;;23.95;7.72;;;9.90;99.90;;;;;;5035605;28;20389;-73
2022/05/15 01:21:22;;;;;;;24.20;7.53;;;9.70;99.90;;;;;;5035688;28;20127;-72
2022/05/15 01:23:49;;;;;;;22.83;7.80;;;9.70;99.90;;;;;;5018808;28;20404;-73
2022/05/15 01:26:16;;;;;;;20.58;7.80;;;9.70;99.90;;;;;;5017096;28;20077;-73
2022/05/15 01:28:45;;;;;;;19.23;8.02;;;9.70;99.90;;;;;;5017625;28;20129;-71
2022/05/15 01:31:13;;;;;;;21.83;7.93;;;9.60;99.90;;;;;;5017750;28;20087;-72
2022/05/15 01:33:40;;;;;;;23.27;7.25;;;9.60;99.90;;;;;;5017861;28;20089;-73
2022/05/15 01:36:07;;;;;;;23.98;8.02;;;9.60;99.90;;;;;;5035603;28;20061;-72
2022/05/15 01:38:36;;;;;;;18.25;7.00;;;9.50;99.90;;;;;;5017685;28;20136;-73
2022/05/15 01:41:02;;;;;;;20.77;7.13;;;9.50;99.90;;;;;;5017485;28;20497;-73
2022/05/15 01:43:29;;;;;;;19.15;6.85;;;9.50;99.90;;;;;;5017853;28;20089;-73
2022/05/15 01:45:56;;;;;;;20.55;6.97;;;9.50;99.90;;;;;;5034857;28;20111;-72
2022/05/15 01:48:26;;;;;;;21.83;7.35;;;9.40;99.90;;;;;;5018005;28;20136;-73
2022/05/15 01:50:53;;;;;;;25.90;7.22;;;9.40;99.90;;;;;;5017704;28;20052;-72
2022/05/15 01:53:19;;;;;;;24.60;7.57;;;9.40;99.90;;;;;;5017096;28;20531;-73
2022/05/15 01:55:48;;;;;;;16.95;7.60;;;9.40;99.90;;;;;;5034911;28;20081;-71
2022/05/15 01:58:15;;;;;;;23.85;6.38;;;9.30;99.90;;;;;;5017761;28;20132;-72
2022/05/15 02:00:42;;;;;;;23.98;6.75;;;9.30;99.90;;;;;;5034410;28;20103;-72
2022/05/15 02:03:08;;;;;;;22.20;8.73;;;9.30;99.90;;;;;;5035296;28;20049;-72
2022/05/15 02:05:35;;;;;;;16.63;7.13;;;9.20;99.90;;;;;;5017593;28;20057;-72
2022/05/15 02:08:02;;;;;;;21.20;7.00;;;9.20;99.90;;;;;;5034852;28;20097;-71
2022/05/15 02:10:29;;;;;;;25.92;7.28;;;9.30;99.90;;;;;;5017186;28;20057;-72
2022/05/15 02:12:57;;;;;;;23.70;7.43;;;9.10;99.90;;;;;;5034815;28;20037;-71
2022/05/15 02:15:24;;;;;;;25.90;7.70;;;9.10;99.90;;;;;;5015959;28;20042;-72
2022/05/15 02:17:52;;;;;;;24.70;6.85;;;9.10;99.90;;;;;;5035528;28;20093;-71
2022/05/15 02:20:20;;;;;;;21.15;6.35;;;9.00;99.90;;;;;;5017368;28;20132;-71
2022/05/15 02:22:46;;;;;;;23.50;8.05;;;9.00;99.90;;;;;;5016467;28;20049;-72
2022/05/15 02:25:14;;;;;;;21.15;7.65;;;9.00;99.90;;;;;;5017119;28;20107;-72
2022/05/15 02:27:42;;;;;;;22.02;7.80;;;9.00;99.90;;;;;;5016294;28;20100;-72
2022/05/15 02:30:12;;;;;;;25.52;7.93;;;9.00;99.90;;;;;;5034455;28;20057;-72
2022/05/15 02:32:39;;;;;;;20.70;7.65;;;8.90;99.90;;;;;;5035056;28;20053;-70
2022/05/15 02:35:07;;;;;;;21.00;6.82;;;8.90;99.90;;;;;;5033834;28;20512;-72
2022/05/15 02:37:34;;;;;;;23.08;7.63;;;8.90;99.90;;;;;;5034471;28;20080;-72
2022/05/15 02:40:01;;;;;;;20.70;6.63;;;8.90;99.90;;;;;;5016854;28;20057;-72
2022/05/15 02:42:28;;;;;;;39.38;9.07;;;8.80;99.90;;;;;;5033437;28;20072;-71
2022/05/15 02:44:55;;;;;;;21.10;7.72;;;8.80;99.90;;;;;;5034432;28;20081;-73
2022/05/15 02:47:23;;;;;;;23.00;7.90;;;8.80;99.90;;;;;;5034545;28;20136;-73
2022/05/15 02:52:34;;;;;;;22.00;8.13;;;8.70;99.90;;;;;;5033993;28;20049;-72
2022/05/15 02:55:02;;;;;;;31.33;8.68;;;8.70;99.90;;;;;;5014907;28;20081;-72
2022/05/15 02:57:29;;;;;;;24.70;8.48;;;8.70;99.90;;;;;;5015373;28;20084;-72
2022/05/15 02:59:56;;;;;;;20.92;7.30;;;8.70;99.90;;;;;;5016554;28;20136;-72
2022/05/15 03:02:24;;;;;;;22.42;7.55;;;8.70;99.90;;;;;;5016388;28;20081;-72
2022/05/15 03:04:51;;;;;;;24.95;8.07;;;8.60;99.90;;;;;;5015846;28;20084;-73
2022/05/15 03:07:18;;;;;;;23.10;7.55;;;8.70;99.90;;;;;;5033910;28;20064;-72
2022/05/15 03:09:47;;;;;;;25.58;8.02;;;8.60;99.90;;;;;;5033386;28;20057;-73
2022/05/15 03:12:14;;;;;;;22.75;8.38;;;8.60;99.90;;;;;;5034030;28;20163;-72
2022/05/15 03:14:40;;;;;;;20.98;7.50;;;8.60;99.90;;;;;;5016494;28;20485;-71
2022/05/15 03:17:07;;;;;;;25.65;8.38;;;8.60;99.90;;;;;;5015328;28;20553;-72
2022/05/15 03:19:35;;;;;;;22.88;7.88;;;8.60;99.90;;;;;;5033787;28;20056;-73
2022/05/15 03:22:03;;;;;;;17.88;6.93;;;8.60;99.90;;;;;;5015599;28;20084;-72
2022/05/15 03:24:30;;;;;;;25.15;6.82;;;8.60;99.90;;;;;;5033579;28;20150;-72
2022/05/15 03:26:58;;;;;;;23.25;6.50;;;8.60;99.90;;;;;;5032561;28;20401;-74
2022/05/15 03:29:25;;;;;;;18.27;6.50;;;8.60;99.90;;;;;;5015601;28;20057;-72
2022/05/15 03:31:52;;;;;;;17.02;7.28;;;8.50;99.90;;;;;;5015246;28;20100;-72
2022/05/15 03:34:19;;;;;;;20.50;6.97;;;8.50;99.90;;;;;;5015344;28;20076;-72
2022/05/15 03:36:51;;;;;;;23.33;8.07;;;8.50;99.90;;;;;;5014912;28;20041;-72
2022/05/15 03:39:19;;;;;;;21.83;7.18;;;8.50;99.90;;;;;;5032493;28;20489;-72
2022/05/15 03:41:47;;;;;;;22.02;8.00;;;8.50;99.90;;;;;;5016176;28;20053;-73
2022/05/15 03:44:14;;;;;;;21.40;7.72;;;8.50;99.90;;;;;;5033806;28;20499;-73
2022/05/15 03:46:41;;;;;;;20.90;7.95;;;8.50;99.90;;;;;;5033202;28;20053;-73
2022/05/15 03:49:09;;;;;;;24.98;9.20;;;8.50;99.90;;;;;;5015971;28;20053;-73
2022/05/15 03:51:35;;;;;;;30.40;8.32;;;8.50;99.90;;;;;;5016817;28;20136;-73
2022/05/15 03:54:04;;;;;;;22.92;7.63;;;8.50;99.90;;;;;;5015985;28;20053;-75
2022/05/15 03:59:17;;;;;;;22.00;8.07;;;8.40;99.90;;;;;;5032928;28;20045;-72
2022/05/15 04:01:44;;;;;;;27.08;7.63;;;8.40;99.90;;;;;;5032894;28;20124;-73
2022/05/15 04:04:11;;;;;;;23.90;8.32;;;8.40;99.90;;;;;;5033209;28;20053;-72
2022/05/15 04:06:39;;;;;;;19.17;6.68;;;8.50;99.90;;;;;;5032420;28;20470;-72
2022/05/15 04:09:07;;;;;;;26.75;9.82;;;8.50;99.90;;;;;;5032458;28;20081;-72
2022/05/15 04:11:34;;;;;;;24.90;8.20;;;8.60;99.90;;;;;;5033070;28;20063;-73
2022/05/15 04:14:01;;;;;;;18.50;7.22;;;8.50;99.90;;;;;;5014810;28;20050;-73
2022/05/15 04:16:28;;;;;;;26.70;7.88;;;8.60;99.90;;;;;;5014400;28;20145;-72
2022/05/15 04:18:55;;;;;;;22.42;7.93;;;8.60;99.90;;;;;;5032960;28;20556;-73
2022/05/15 04:21:22;;;;;;;24.38;8.40;;;8.70;99.90;;;;;;5032312;28;20567;-72
2022/05/15 04:23:49;;;;;;;20.35;7.40;;;8.70;99.90;;;;;;5015355;28;20085;-72
2022/05/15 04:26:17;;;;;;;21.00;6.50;;;8.80;99.90;;;;;;5032825;28;20159;-73
2022/05/15 04:28:44;;;;;;;25.65;7.47;;;8.90;99.90;;;;;;5014079;28;20062;-74
2022/05/15 04:31:11;;;;;;;31.27;8.57;;;8.90;99.90;;;;;;5032515;28;20053;-70
2022/05/15 04:33:38;;;;;;;20.60;7.93;;;9.00;99.90;;;;;;5032626;28;20510;-72
2022/05/15 04:36:05;;;;;;;20.83;8.40;;;9.10;99.90;;;;;;5031811;28;20045;-71
2022/05/15 04:38:32;;;;;;;26.10;7.55;;;9.10;99.90;;;;;;5034208;28;20054;-73
2022/05/15 04:40:58;;;;;;;21.42;7.13;;;9.20;99.90;;;;;;5019074;28;20088;-72
2022/05/15 04:43:27;;;;;;;21.55;6.93;;;9.30;99.90;;;;;;5036093;28;20054;-72
2022/05/15 04:45:53;;;;;;;24.90;8.27;;;9.40;99.90;;;;;;5035576;28;20493;-72
2022/05/15 04:48:20;;;;;;;24.33;8.20;;;9.50;99.90;;;;;;5029871;28;20537;-70
2022/05/15 04:50:47;;;;;;;25.13;7.78;;;9.30;99.90;;;;;;5018280;28;20135;-72
2022/05/15 04:53:14;;;;;;;27.23;7.30;;;9.70;99.90;;;;;;5004411;28;20089;-72
2022/05/15 04:55:40;;;;;;;23.45;7.97;;;9.90;99.90;;;;;;5004924;28;20489;-72
2022/05/15 04:58:07;;;;;;;26.85;8.07;;;10.00;99.90;;;;;;5027094;28;20081;-72
2022/05/15 05:00:36;;;;;;;27.27;7.97;;;10.10;99.90;;;;;;5011164;28;20471;-71
2022/05/15 05:03:02;;;;;;;27.60;7.90;;;10.20;99.90;;;;;;5009555;28;20103;-72
2022/05/15 05:05:29;;;;;;;28.20;7.78;;;10.30;99.90;;;;;;5011762;28;20160;-72
2022/05/15 05:07:56;;;;;;;24.92;7.25;;;10.50;99.90;;;;;;5029796;28;20041;-72
2022/05/15 05:10:23;;;;;;;21.42;7.10;;;10.60;99.90;;;;;;5012995;28;20045;-71
2022/05/15 05:12:50;;;;;;;27.77;7.05;;;10.80;99.90;;;;;;5027740;28;20073;-72
2022/05/15 05:15:17;;;;;;;22.80;8.30;;;10.90;99.90;;;;;;5029369;28;20081;-72
2022/05/15 05:17:45;;;;;;;23.75;7.97;;;11.10;99.90;;;;;;5012388;28;20142;-72
2022/05/15 05:20:14;;;;;;;23.52;8.73;;;11.30;99.90;;;;;;5011530;28;20086;-72
2022/05/15 05:22:41;;;;;;;16.55;6.90;;;11.40;99.90;;;;;;5006289;28;20080;-72
2022/05/15 05:25:09;;;;;;;19.58;6.60;;;11.60;99.90;;;;;;5009579;28;20077;-71
2022/05/15 05:27:37;;;;;;;18.60;6.82;;;11.80;99.90;;;;;;5008281;28;20080;-72
2022/05/15 05:30:05;;;;;;;23.17;6.63;;;12.00;99.90;;;;;;4996811;28;20112;-71
2022/05/15 05:32:32;;;;;;;20.30;6.65;;;12.20;99.90;;;;;;4988618;28;20050;-72
2022/05/15 05:35:00;;;;;;;19.45;7.68;;;12.40;99.90;;;;;;5005785;28;20116;-71
2022/05/15 05:37:27;;;;;;;19.15;6.65;;;12.50;99.90;;;;;;4988496;28;20073;-72
2022/05/15 05:39:54;;;;;;;21.42;7.05;;;12.70;99.90;;;;;;4987346;28;20089;-71
2022/05/15 05:42:21;;;;;;;22.00;7.20;;;12.80;99.90;;;;;;4986771;28;20141;-72
2022/05/15 05:44:47;;;;;;;18.73;6.10;;;12.90;99.90;;;;;;5007334;28;20085;-72
2022/05/15 05:47:14;;;;;;;17.02;5.93;;;13.10;99.90;;;;;;5008444;28;20153;-72
2022/05/15 05:49:43;;;;;;;19.08;6.35;;;13.30;99.90;;;;;;4991356;28;20046;-71
2022/05/15 05:52:11;;;;;;;19.88;6.03;;;13.50;99.90;;;;;;4988509;28;20101;-72
2022/05/15 05:54:38;;;;;;;22.92;6.80;;;13.60;99.90;;;;;;4990803;28;20104;-72
2022/05/15 05:57:06;;;;;;;19.15;6.32;;;13.80;99.90;;;;;;4992509;28;20050;-72
2022/05/15 05:59:33;;;;;;;20.67;6.80;;;13.90;99.90;;;;;;5006662;28;20061;-72
2022/05/15 06:01:59;;;;;;;12.23;4.97;;;14.10;99.90;;;;;;4989039;28;20108;-72
2022/05/15 06:04:41;;;;;;;18.77;6.82;;;14.30;99.90;;;;;;4992432;28;20084;-72
2022/05/15 06:07:12;;;;;;;14.88;5.22;;;14.40;99.90;;;;;;4989244;28;20077;-72
2022/05/15 06:09:40;;;;;;;15.90;6.25;;;14.60;99.90;;;;;;5004220;28;20054;-71
2022/05/15 06:12:07;;;;;;;17.30;5.28;;;14.80;99.90;;;;;;5007277;28;20054;-73
2022/05/15 06:14:34;;;;;;;20.35;5.65;;;15.00;99.90;;;;;;4989043;28;20375;-72
2022/05/15 06:17:01;;;;;;;18.15;6.00;;;15.30;99.90;;;;;;5009855;28;20062;-71
2022/05/15 06:19:28;;;;;;;18.50;5.97;;;15.40;99.90;;;;;;4994326;28;20493;-72
2022/05/15 06:21:55;;;;;;;17.25;5.13;;;15.50;99.90;;;;;;5006959;28;20045;-72
2022/05/15 06:24:25;;;;;;;18.70;5.45;;;15.60;99.90;;;;;;4988094;28;20050;-72
2022/05/15 06:26:52;;;;;;;18.33;5.30;;;15.80;99.90;;;;;;5006255;28;20042;-72
2022/05/15 06:29:19;;;;;;;18.90;5.97;;;16.00;99.90;;;;;;5007970;28;20088;-72
2022/05/15 06:31:46;;;;;;;18.15;5.05;;;16.10;99.90;;;;;;5005727;28;20097;-72
2022/05/15 06:34:16;;;;;;;14.23;4.93;;;16.30;99.90;;;;;;4986431;28;20398;-72
2022/05/15 06:36:43;;;;;;;18.85;6.18;;;16.50;99.90;;;;;;5005709;28;20438;-72
2022/05/15 06:39:10;;;;;;;22.20;5.22;;;17.20;99.90;;;;;;4989252;28;20146;-73
2022/05/15 06:41:39;;;;;;;15.55;5.18;;;17.20;99.90;;;;;;5003700;28;20096;-72
2022/05/15 06:44:06;;;;;;;14.35;5.03;;;17.50;99.90;;;;;;5007665;28;20047;-73
2022/05/15 06:46:33;;;;;;;13.75;4.40;;;17.90;99.90;;;;;;4990780;28;20057;-72
2022/05/15 06:49:01;;;;;;;15.05;6.13;;;18.10;99.90;;;;;;4989613;28;20066;-72
2022/05/15 06:51:28;;;;;;;16.23;4.75;;;18.50;99.90;;;;;;5007541;28;20045;-72
2022/05/15 06:53:55;;;;;;;19.33;5.32;;;19.00;99.90;;;;;;4994037;28;20490;-73
2022/05/15 06:59:07;;;;;;;14.68;4.28;;;19.80;99.90;;;;;;4990185;28;20046;-73
2022/05/15 07:01:34;;;;;;;11.43;4.53;;;20.20;99.90;;;;;;4986905;28;20055;-73
2022/05/15 07:04:01;;;;;;;15.77;4.97;;;20.60;99.10;;;;;;4989349;28;20422;-73
2022/05/15 07:06:28;;;;;;;12.52;4.25;;;20.70;97.20;;;;;;4988462;28;20050;-73
2022/05/15 07:08:55;;;;;;;15.05;4.88;;;21.10;97.00;;;;;;5007198;28;20069;-71
2022/05/15 07:11:22;;;;;;;15.75;5.05;;;21.40;97.00;;;;;;4990024;28;20148;-73
2022/05/15 07:13:48;;;;;;;14.60;5.50;;;21.50;96.40;;;;;;5007723;28;20050;-73
2022/05/15 07:16:17;;;;;;;15.07;4.82;;;21.70;95.20;;;;;;5007382;28;20561;-73
2022/05/15 07:18:46;;;;;;;14.93;5.25;;;22.00;93.80;;;;;;4988041;28;20053;-73
2022/05/15 07:21:13;;;;;;;11.80;4.27;;;22.10;92.00;;;;;;5009660;28;20046;-73
2022/05/15 07:23:41;;;;;;;19.38;5.32;;;22.10;91.70;;;;;;4992138;28;20058;-73
2022/05/15 07:26:08;;;;;;;14.18;4.47;;;22.40;90.90;;;;;;5009258;28;20061;-72
2022/05/15 07:28:35;;;;;;;13.25;4.93;;;22.80;89.90;;;;;;5013547;28;20115;-73
2022/05/15 07:31:02;;;;;;;14.70;4.18;;;22.70;88.80;;;;;;5023821;28;20452;-72
2022/05/15 07:33:30;;;;;;;13.18;4.57;;;22.90;87.80;;;;;;5023115;28;20053;-72
2022/05/15 07:35:57;;;;;;;13.13;4.97;;;23.10;85.10;;;;;;5023725;28;20070;-73
2022/05/15 07:38:25;;;;;;;14.13;5.07;;;23.20;86.10;;;;;;5025945;28;20041;-72
2022/05/15 07:40:52;;;;;;;14.95;4.25;;;23.30;84.50;;;;;;5011772;28;20104;-74
2022/05/15 07:43:19;;;;;;;12.35;3.85;;;23.50;83.60;;;;;;5009347;28;20057;-74
2022/05/15 07:45:46;;;;;;;13.90;4.22;;;23.60;81.90;;;;;;5024982;28;20056;-73
2022/05/15 07:48:16;;;;;;;11.60;4.45;;;23.80;81.80;;;;;;5008496;28;20057;-72
2022/05/15 07:50:44;;;;;;;16.38;4.75;;;23.90;79.70;;;;;;5027686;28;20053;-72
2022/05/15 07:53:11;;;;;;;12.00;4.05;;;23.90;79.30;;;;;;5007709;28;20064;-73
2022/05/15 07:55:39;;;;;;;12.05;3.40;;;24.20;79.50;;;;;;5009314;28;20436;-74
2022/05/15 07:58:05;;;;;;;10.63;3.92;;;24.30;78.80;;;;;;5026724;28;20498;-73
2022/05/15 08:00:32;;;;;;;12.50;3.72;;;24.60;78.10;;;;;;5007291;28;20064;-73
2022/05/15 08:03:04;;;;;;;15.07;4.72;;;24.60;76.60;;;;;;5023451;28;20568;-73
2022/05/15 08:08:18;;;;;;;9.95;3.58;;;25.10;76.50;;;;;;5020746;28;20049;-73
2022/05/15 08:10:46;;;;;;;14.10;4.30;;;25.30;75.00;;;;;;5005350;28;20057;-73
2022/05/15 08:13:15;;;;;;;9.98;3.70;;;25.50;74.20;;;;;;5023491;28;20095;-74
2022/05/15 08:15:42;;;;;;;11.32;3.53;;;25.70;73.50;;;;;;5027205;28;20119;-73
2022/05/15 08:23:47;;;;;;;10.77;3.83;;;25.90;68.90;;;;;;5008150;28;20053;-72
2022/05/15 08:26:14;;;;;;;13.52;3.85;;;26.00;68.30;;;;;;5022497;28;20053;-73
2022/05/15 08:28:41;;;;;;;13.73;4.20;;;25.90;69.30;;;;;;5005686;28;20046;-74
2022/05/15 08:31:09;;;;;;;12.88;4.00;;;25.90;69.30;;;;;;5025307;28;20054;-73
2022/05/15 08:33:36;;;;;;;10.40;3.85;;;26.20;68.50;;;;;;5004937;28;20146;-73
2022/05/15 08:36:04;;;;;;;11.50;4.00;;;26.40;68.00;;;;;;5026330;28;20062;-74
2022/05/15 08:38:32;;;;;;;11.38;3.83;;;26.50;67.30;;;;;;5025456;28;20414;-73
2022/05/15 08:41:03;;;;;;;9.55;3.58;;;26.50;66.00;;;;;;5010947;28;20060;-74
2022/05/15 08:43:43;;;;;;;9.48;3.30;;;26.60;64.30;;;;;;5028273;28;20386;-73
2022/05/15 08:46:35;;;;;;;8.30;3.15;;;26.30;64.60;;;;;;5008005;28;20545;-73
2022/05/15 08:49:15;;;;;;;13.77;3.85;;;26.70;65.00;;;;;;5025017;28;20092;-72
2022/05/15 08:51:49;;;;;;;9.02;3.75;;;26.80;62.30;;;;;;5007750;28;20436;-72
2022/05/15 08:54:16;;;;;;;10.13;3.83;;;26.80;63.40;;;;;;5025220;28;20107;-74
2022/05/15 08:56:49;;;;;;;11.63;3.90;;;26.70;63.50;;;;;;5025570;28;20049;-74
2022/05/15 08:59:22;;;;;;;9.85;3.78;;;26.80;62.00;;;;;;5027372;28;20041;-73
2022/05/15 09:01:52;;;;;;;11.18;3.85;;;26.50;62.30;;;;;;5025047;28;20053;-74
2022/05/15 09:04:20;;;;;;;13.25;4.47;;;26.40;62.80;;;;;;5023193;28;20516;-73
2022/05/15 09:06:56;;;;;;;10.73;3.67;;;26.40;63.10;;;;;;5022831;28;20112;-73
2022/05/15 09:09:32;;;;;;;10.30;3.75;;;26.70;62.70;;;;;;5008888;28;20137;-72
2022/05/15 09:12:07;;;;;;;10.30;3.78;;;26.60;62.40;;;;;;5004731;28;20104;-74
2022/05/15 09:15:00;;;;;;;9.25;3.65;;;26.90;61.90;;;;;;5024521;28;20045;-71
2022/05/15 09:17:43;;;;;;;14.73;3.80;;;27.10;61.60;;;;;;5005519;28;20045;-73
2022/05/15 09:20:14;;;;;;;10.77;3.25;;;27.30;62.20;;;;;;5029292;28;20090;-72
2022/05/15 09:22:45;;;;;;;7.78;2.90;;;27.50;62.10;;;;;;5024053;28;20139;-73
2022/05/15 09:25:17;;;;;;;10.70;4.20;;;27.70;61.40;;;;;;5025929;28;20096;-74
2022/05/15 09:28:00;;;;;;;12.13;3.80;;;27.90;60.40;;;;;;5007763;28;20046;-74
2022/05/15 09:30:34;;;;;;;9.90;3.60;;;28.10;59.80;;;;;;5011291;28;20053;-71
2022/05/15 09:33:01;;;;;;;9.00;3.45;;;28.40;59.40;;;;;;5009082;28;20057;-73
2022/05/15 09:35:33;;;;;;;12.05;4.03;;;28.60;59.80;;;;;;4992554;28;20084;-75
2022/05/15 09:43:32;;;;;;;11.63;3.63;;;28.60;58.40;;;;;;4990073;28;20045;-73
2022/05/15 09:46:06;;;;;;;9.02;3.40;;;28.50;57.80;;;;;;5007673;28;20049;-74
2022/05/15 09:48:39;;;;;;;10.20;3.00;;;28.50;58.00;;;;;;4989509;28;20050;-74
2022/05/15 09:51:11;;;;;;;6.50;3.00;;;28.80;57.70;;;;;;5007933;28;20054;-73
2022/05/15 09:53:45;;;;;;;10.25;3.55;;;29.20;57.10;;;;;;5005926;28;20645;-74
2022/05/15 09:56:25;;;;;;;8.55;3.35;;;29.50;56.40;;;;;;4989356;28;20104;-75
2022/05/15 09:58:56;;;;;;;9.55;3.75;;;29.20;56.80;;;;;;4988071;28;20120;-73
2022/05/15 10:01:27;;;;;;;9.02;3.28;;;29.00;57.00;;;;;;4998345;28;20501;-73
2022/05/15 10:03:56;;;;;;;8.88;3.33;;;28.90;56.90;;;;;;4995507;28;20387;-74
2022/05/15 10:06:26;;;;;;;10.35;3.75;;;29.00;57.00;;;;;;4976197;28;20153;-74
2022/05/15 10:09:13;;;;;;;8.27;3.10;;;29.20;56.80;;;;;;4994003;28;20399;-74
2022/05/15 10:11:43;;;;;;;12.55;3.70;;;29.30;56.60;;;;;;4998380;28;20050;-74
2022/05/15 10:14:14;;;;;;;;;;;29.20;56.30;;;;;;4983243;28;20058;-72
2022/05/15 10:16:48;;;;;;;11.25;3.10;;;29.10;55.80;;;;;;4987680;28;20000;-74
2022/05/15 10:19:24;;;;;;;8.55;3.80;;;29.30;56.00;;;;;;4989485;28;20050;-73
2022/05/15 10:21:56;;;;;;;10.75;3.55;;;29.60;57.00;;;;;;4977531;28;20395;-73
2022/05/15 10:24:28;;;;;;;14.15;3.38;;;29.50;56.20;;;;;;4977332;28;20086;-74
2022/05/15 10:27:02;;;;;;;9.80;3.25;;;29.40;56.30;;;;;;4994008;28;20078;-72
2022/05/15 10:29:37;;;;;;;10.50;3.58;;;29.00;56.40;;;;;;4992018;28;20502;-72
2022/05/15 10:32:09;;;;;;;9.77;3.03;;;28.90;56.40;;;;;;4995611;28;20054;-72
2022/05/15 10:34:36;;;;;;;9.02;3.20;;;29.20;56.90;;;;;;4993489;28;20058;-72
2022/05/15 10:37:16;;;;;;;7.60;2.97;;;29.70;56.30;;;;;;4994695;28;20051;-73
2022/05/15 10:40:07;;;;;;;10.10;3.42;;;29.90;55.10;;;;;;4995644;28;20092;-72
2022/05/15 10:42:43;;;;;;;8.73;3.03;;;30.10;55.20;;;;;;4994293;28;20097;-72
2022/05/15 10:45:19;;;;;;;8.10;3.03;;;29.80;55.70;;;;;;4995362;28;20050;-72
2022/05/15 10:48:00;;;;;;;8.35;2.85;;;30.10;55.00;;;;;;4994180;28;20085;-74
2022/05/15 10:50:35;;;;;;;8.60;3.08;;;29.60;54.30;;;;;;4994018;28;20054;-72
2022/05/15 10:59:28;;;;;;;8.02;2.85;;;29.90;54.20;;;;;;4993660;28;20058;-74
2022/05/15 11:02:08;;;;;;;10.38;3.55;;;29.80;53.70;;;;;;4994271;28;20486;-73
2022/05/15 11:04:45;;;;;;;7.82;3.30;;;29.80;53.80;;;;;;4993689;28;20082;-72
2022/05/15 11:07:21;;;;;;;9.40;3.30;;;29.90;54.20;;;;;;4993759;28;20438;-73
2022/05/15 11:10:00;;;;;;;6.60;2.63;;;29.60;54.60;;;;;;4994189;28;20050;-73
2022/05/15 11:12:36;;;;;;;10.27;3.50;;;29.60;54.10;;;;;;4994639;28;20105;-74
2022/05/15 11:15:18;;;;;;;11.32;3.65;;;29.60;55.70;;;;;;4994879;28;20461;-74
2022/05/15 11:17:55;;;;;;;8.27;3.00;;;29.70;54.30;;;;;;4993313;28;20125;-74
2022/05/15 11:20:27;;;;;;;8.02;2.97;;;30.00;54.50;;;;;;4993574;28;20654;-73
2022/05/15 11:22:58;;;;;;;12.32;3.72;;;29.80;54.40;;;;;;4992919;28;20093;-73
2022/05/15 11:25:28;;;;;;;7.30;3.03;;;29.90;54.80;;;;;;4993701;28;20507;-74
2022/05/15 11:28:03;;;;;;;9.13;3.15;;;29.90;54.90;;;;;;4999324;28;20085;-74
2022/05/15 11:30:33;;;;;;;10.30;3.40;;;30.30;54.20;;;;;;5013238;28;20486;-73
2022/05/15 11:33:05;;;;;;;7.57;2.88;;;30.40;54.00;;;;;;5014350;28;20054;-74
2022/05/15 11:35:35;;;;;;;6.63;2.83;;;30.20;54.60;;;;;;5014108;28;20395;-74
2022/05/15 11:38:11;;;;;;;8.40;2.85;;;30.10;54.20;;;;;;5013216;28;20139;-73
2022/05/15 11:40:41;;;;;;;10.95;3.22;;;30.00;54.60;;;;;;4996835;28;20058;-74
2022/05/15 11:43:45;;;;;;;5.95;2.83;;;30.10;54.30;;;;;;5013589;28;20510;-74
2022/05/15 11:46:12;;;;;;;7.80;3.35;;;30.20;55.30;;;;;;5013433;28;20528;-74
2022/05/15 11:49:01;;;;;;;6.32;2.65;;;30.00;54.80;;;;;;5012955;28;20046;-74
2022/05/15 11:51:34;;;;;;;7.40;2.78;;;30.10;53.60;;;;;;4995180;28;20065;-74
2022/05/15 11:54:03;;;;;;;9.52;2.97;;;30.20;53.40;;;;;;5013884;28;20042;-73
2022/05/15 11:56:40;;;;;;;7.75;2.88;;;30.20;53.90;;;;;;4995782;28;20050;-73
2022/05/15 11:59:24;;;;;;;6.95;2.50;;;30.40;53.90;;;;;;5012656;28;20046;-73
2022/05/15 12:01:53;;;;;;;7.07;2.80;;;30.10;53.50;;;;;;4996529;28;20424;-73
2022/05/15 12:04:37;;;;;;;6.93;2.72;;;29.40;54.20;;;;;;4996151;28;20050;-73
2022/05/15 12:07:49;;;;;;;7.93;2.92;;;28.80;54.50;;;;;;5024703;28;20053;-72
2022/05/15 12:10:22;;;;;;;6.90;2.25;;;28.80;55.30;;;;;;5007067;28;20494;-73
2022/05/15 12:13:08;;;;;;;7.10;2.33;;;29.20;55.10;;;;;;5031463;28;20041;-73
2022/05/15 12:15:46;;;;;;;7.90;2.40;;;29.40;53.90;;;;;;5014906;28;20053;-72
2022/05/15 12:18:24;;;;;;;10.75;2.72;;;29.50;54.50;;;;;;5030521;28;20049;-72
2022/05/15 12:20:54;;;;;;;8.45;2.55;;;29.70;54.80;;;;;;5005440;28;20143;-72
2022/05/15 12:23:23;;;;;;;6.78;2.28;;;29.50;54.20;;;;;;5015951;28;20050;-73
2022/05/15 12:25:57;;;;;;;6.38;2.28;;;29.40;54.10;;;;;;5024452;28;20060;-72
2022/05/15 12:28:54;;;;;;;7.88;2.90;;;29.50;53.30;;;;;;5023048;28;20076;-71
2022/05/15 12:31:28;;;;;;;7.82;2.10;;;29.70;53.80;;;;;;5009569;28;20242;-72
2022/05/15 12:33:56;;;;;;;6.55;2.13;;;30.00;54.00;;;;;;5023771;28;20046;-73
2022/05/15 12:36:33;;;;;;;8.52;2.92;;;30.40;54.00;;;;;;5025939;28;20061;-73
2022/05/15 12:39:01;;;;;;;6.78;2.15;;;30.50;53.40;;;;;;5019971;28;20081;-74
2022/05/15 12:41:32;;;;;;;7.45;2.20;;;30.50;53.30;;;;;;4996217;28;20344;-73
2022/05/15 12:44:01;;;;;;;5.93;2.10;;;30.50;52.90;;;;;;5012677;28;20140;-73
2022/05/15 12:46:32;;;;;;;7.47;2.22;;;31.00;53.10;;;;;;4998593;28;20412;-73
2022/05/15 12:49:00;;;;;;;5.97;2.42;;;30.70;52.10;;;;;;5003776;28;20053;-73
2022/05/15 12:51:31;;;;;;;7.78;2.40;;;30.70;52.60;;;;;;5015648;28;20046;-74
2022/05/15 12:53:59;;;;;;;7.32;2.80;;;30.80;52.30;;;;;;5014379;28;20065;-73
2022/05/15 12:56:29;;;;;;;6.53;2.30;;;30.70;52.40;;;;;;5003766;28;20493;-72
2022/05/15 12:58:58;;;;;;;7.15;2.47;;;31.00;53.10;;;;;;4999668;28;20184;-73
2022/05/15 13:01:28;;;;;;;9.80;3.00;;;30.90;52.70;;;;;;5025277;28;20045;-74
2022/05/15 13:03:57;;;;;;;9.45;2.65;;;30.80;52.30;;;;;;5015888;28;20045;-73
2022/05/15 13:06:32;;;;;;;6.10;2.38;;;30.90;52.50;;;;;;5031626;28;20052;-74
2022/05/15 13:09:03;;;;;;;8.10;2.25;;;31.30;52.30;;;;;;5026619;28;20060;-73
2022/05/15 13:11:39;;;;;;;5.93;2.90;;;31.20;52.50;;;;;;5034422;28;20050;-75
2022/05/15 13:14:11;;;;;;;6.82;2.60;;;31.10;52.10;;;;;;5003537;28;20493;-73
2022/05/15 13:16:41;;;;;;;6.95;2.30;;;31.20;52.50;;;;;;5029959;28;20475;-73
2022/05/15 13:19:14;;;;;;;6.25;2.30;;;31.10;52.10;;;;;;5035192;28;20065;-72
2022/05/15 13:21:47;;;;;;;11.00;2.70;;;31.30;52.60;;;;;;5028062;28;20375;-72
2022/05/15 13:24:16;;;;;;;5.35;2.33;;;31.30;51.90;;;;;;5023362;28;20050;-71
2022/05/15 13:26:44;;;;;;;;;;;31.40;52.00;;;;;;5012719;28;20104;-72